Time;durP1;ratioP1;P1;durP2;ratioP2;P2;SDS_P1;SDS_P2;PMS_P1;PMS_P2;Temp;Humidity;BMP_temperature;BMP_pressure;BME280_temperature;BME280_humidity;BME280_pressure;Samples;Min_cycle;Max_cycle;Signal;HPM_P1;HPM_P2
2021/12/21 00:01:43;;;;;;;16.85;10.18;;;;;;;-2.67;100.00;102140.63;5008221;28;20072;-88
2021/12/21 00:04:10;;;;;;;17.38;9.65;;;;;;;-2.73;100.00;102137.66;5000063;28;20122;-89
2021/12/21 00:06:37;;;;;;;15.40;10.25;;;;;;;-2.74;100.00;102147.78;4998675;28;20057;-89
2021/12/21 00:09:05;;;;;;;13.63;9.50;;;;;;;-2.80;100.00;102140.59;5011339;28;20077;-87
2021/12/21 00:11:34;;;;;;;20.08;12.10;;;;;;;-2.77;100.00;102145.91;5012077;28;20885;-87
2021/12/21 00:17:05;;;;;;;16.98;8.85;;;;;;;-2.78;100.00;102136.44;5011705;28;20053;-87
2021/12/21 00:19:49;;;;;;;16.45;10.98;;;;;;;-2.81;100.00;102132.78;4986887;28;20513;-88
2021/12/21 00:22:47;;;;;;;17.75;10.38;;;;;;;-2.83;100.00;102136.13;5008341;28;20107;-89
2021/12/21 00:25:17;;;;;;;14.02;9.52;;;;;;;-2.83;100.00;102131.00;4991992;28;20076;-89
2021/12/21 00:27:48;;;;;;;27.02;11.95;;;;;;;-2.85;100.00;102137.69;5009858;28;20060;-88
2021/12/21 00:30:19;;;;;;;22.38;11.05;;;;;;;-2.82;100.00;102129.31;4996552;28;20042;-90
2021/12/21 00:32:47;;;;;;;15.18;10.32;;;;;;;-2.82;100.00;102129.31;4988251;28;20057;-88
2021/12/21 00:35:14;;;;;;;17.23;11.52;;;;;;;-2.85;100.00;102135.13;5004183;28;20057;-87
2021/12/21 00:37:43;;;;;;;17.35;10.38;;;;;;;-2.85;100.00;102130.00;4991929;28;20053;-88
2021/12/21 00:40:12;;;;;;;17.73;11.38;;;;;;;-2.85;100.00;102126.56;5015106;28;20113;-89
2021/12/21 00:42:39;;;;;;;15.68;9.88;;;;;;;-2.85;100.00;102127.44;4986486;28;21258;-89
2021/12/21 00:45:07;;;;;;;18.90;10.65;;;;;;;-2.88;100.00;102129.78;5004963;28;20108;-87
2021/12/21 00:47:35;;;;;;;20.33;11.55;;;;;;;-2.88;100.00;102126.31;5013518;28;20049;-90
2021/12/21 00:50:08;;;;;;;16.50;11.40;;;;;;;-2.85;100.00;102126.56;5026585;28;20104;-90
2021/12/21 00:52:35;;;;;;;16.00;11.27;;;;;;;-2.86;100.00;102128.22;5001559;28;20049;-89
2021/12/21 00:55:02;;;;;;;16.33;11.30;;;;;;;-2.90;100.00;102128.78;5002108;28;20057;-89
2021/12/21 00:57:28;;;;;;;15.02;9.70;;;;;;;-2.94;100.00;102128.50;4991844;28;20052;-87
2021/12/21 00:59:58;;;;;;;22.60;10.45;;;;;;;-2.96;100.00;102128.34;5018161;28;20042;-89
2021/12/21 01:02:25;;;;;;;18.75;11.35;;;;;;;-2.96;100.00;102130.91;4974628;28;20053;-89
2021/12/21 01:04:52;;;;;;;19.38;11.75;;;;;;;-2.95;100.00;102130.13;5016366;28;20052;-88
2021/12/21 01:07:26;;;;;;;17.05;11.27;;;;;;;-2.99;100.00;102130.72;4999469;28;20048;-88
2021/12/21 01:12:49;;;;;;;22.13;11.30;;;;;;;-2.98;100.00;102132.50;4999829;28;20441;-87
2021/12/21 01:15:30;;;;;;;18.30;10.20;;;;;;;-2.97;100.00;102123.13;5006412;28;20924;-88
2021/12/21 01:18:02;;;;;;;20.25;11.05;;;;;;;-3.00;100.00;102131.50;5020182;28;20767;-88
2021/12/21 01:20:34;;;;;;;19.80;12.10;;;;;;;-3.04;100.00;102134.63;5011944;28;20053;-90
2021/12/21 01:23:28;;;;;;;18.30;11.35;;;;;;;-3.07;100.00;102130.16;5013463;28;20712;-90
2021/12/21 01:26:01;;;;;;;19.75;12.55;;;;;;;-3.09;100.00;102116.38;5021269;28;20053;-86
2021/12/21 01:28:37;;;;;;;20.48;11.02;;;;;;;-3.08;100.00;102117.25;5031252;28;20056;-86
2021/12/21 01:31:18;;;;;;;12.05;10.10;;;;;;;-3.11;100.00;102124.75;5027992;28;20053;-90
2021/12/21 01:33:57;;;;;;;12.85;9.77;;;;;;;-3.13;100.00;102127.16;5011775;28;20052;-90
2021/12/21 01:36:32;;;;;;;20.20;11.98;;;;;;;-3.11;100.00;102122.19;4998368;28;20310;-90
2021/12/21 01:39:05;;;;;;;16.30;9.55;;;;;;;-3.11;100.00;102117.06;5008748;28;20553;-87
2021/12/21 01:41:38;;;;;;;17.95;11.05;;;;;;;-3.12;100.00;102107.59;4997962;28;20053;-89
2021/12/21 01:44:19;;;;;;;;;;;;;;;-3.12;100.00;102120.41;5026867;28;20057;-86
2021/12/21 01:49:38;;;;;;;20.10;12.18;;;;;;;-3.12;100.00;102105.91;4998176;28;20057;-88
2021/12/21 01:52:17;;;;;;;25.35;11.20;;;;;;;-3.11;100.00;102105.13;5010028;28;20668;-89
2021/12/21 01:54:44;;;;;;;20.15;10.70;;;;;;;-3.12;100.00;102111.03;5013977;28;20054;-90
2021/12/21 01:57:12;;;;;;;22.88;13.25;;;;;;;-3.12;100.00;102102.47;4980456;28;20075;-88
2021/12/21 01:59:40;;;;;;;22.95;11.35;;;;;;;-3.17;100.00;102102.13;4993437;28;20053;-88
2021/12/21 02:02:10;;;;;;;16.45;10.93;;;;;;;-3.18;100.00;102100.34;4993552;28;20049;-88
2021/12/21 02:04:41;;;;;;;15.43;10.80;;;;;;;-3.22;100.00;102094.13;4985077;28;20056;-88
2021/12/21 02:07:09;;;;;;;20.67;10.05;;;;;;;-3.24;100.00;102098.25;5023121;28;20069;-87
2021/12/21 02:09:38;;;;;;;20.00;11.25;;;;;;;-3.25;100.00;102104.16;4995434;28;20055;-91
2021/12/21 02:12:18;;;;;;;21.33;10.05;;;;;;;-3.24;100.00;102100.81;5021122;28;20157;-90
2021/12/21 02:14:53;;;;;;;25.08;11.05;;;;;;;-3.23;100.00;102096.59;4994077;28;20119;-87
2021/12/21 02:17:48;;;;;;;20.67;11.50;;;;;;;-3.23;100.00;102088.91;5008442;28;20057;-90
2021/12/21 02:20:27;;;;;;;18.25;10.50;;;;;;;-3.24;100.00;102098.25;5014417;28;20784;-87
2021/12/21 02:23:00;;;;;;;18.50;11.68;;;;;;;-3.23;100.00;102088.91;4970844;28;20850;-86
2021/12/21 02:25:58;;;;;;;18.48;11.38;;;;;;;-3.23;100.00;102083.78;4989377;28;20060;-89
2021/12/21 02:31:10;;;;;;;18.67;11.35;;;;;;;-3.22;100.00;102088.09;5021769;28;20168;-89
2021/12/21 02:33:37;;;;;;;16.80;11.05;;;;;;;-3.23;100.00;102083.78;5006990;28;20412;-89
2021/12/21 02:36:05;;;;;;;23.17;11.80;;;;;;;-3.25;100.00;102083.66;4988851;28;20701;-91
2021/12/21 02:38:32;;;;;;;18.65;11.32;;;;;;;-3.24;100.00;102088.00;5010100;28;20791;-86
2021/12/21 02:41:03;;;;;;;19.00;11.98;;;;;;;-3.24;100.00;102084.56;5020767;28;20042;-89
2021/12/21 02:43:35;;;;;;;18.17;10.82;;;;;;;-3.26;100.00;102074.22;5007358;28;20057;-91
2021/12/21 02:46:02;;;;;;;23.70;12.35;;;;;;;-3.27;100.00;102069.88;4989769;28;20065;-89
2021/12/21 02:48:29;;;;;;;28.55;12.05;;;;;;;-3.27;100.00;102072.44;4986280;28;20049;-89
2021/12/21 02:50:56;;;;;;;19.48;11.38;;;;;;;-3.25;100.00;102078.53;5003613;28;20096;-87
2021/12/21 02:53:23;;;;;;;24.58;12.68;;;;;;;-3.25;100.00;102070.84;5000547;28;20061;-91
2021/12/21 02:55:50;;;;;;;19.52;11.57;;;;;;;-3.26;100.00;102069.09;5016411;28;20053;-86
2021/12/21 02:58:17;;;;;;;24.02;11.52;;;;;;;-3.27;100.00;102066.41;4984838;28;20103;-86
2021/12/21 03:00:44;;;;;;;17.85;10.70;;;;;;;-3.33;100.00;102065.19;4980877;28;20053;-90
2021/12/21 03:03:14;;;;;;;16.13;11.95;;;;;;;-3.36;100.00;102080.34;4985918;28;20954;-91
2021/12/21 03:05:48;;;;;;;17.92;10.48;;;;;;;-3.40;100.00;102080.94;4989412;28;20049;-86
2021/12/21 03:08:19;;;;;;;15.25;11.13;;;;;;;-3.41;100.00;102083.38;5009295;28;20049;-87
2021/12/21 03:11:00;;;;;;;26.73;12.48;;;;;;;-3.43;100.00;102079.81;5011034;28;20108;-87
2021/12/21 03:16:12;;;;;;;15.85;11.18;;;;;;;-3.45;100.00;102076.28;5014757;28;20419;-90
2021/12/21 03:18:38;;;;;;;12.68;10.13;;;;;;;-3.47;100.00;102078.69;5017823;28;20454;-88
2021/12/21 03:21:05;;;;;;;16.75;10.93;;;;;;;-3.50;100.00;102081.06;4992926;28;20057;-89
2021/12/21 03:23:32;;;;;;;15.55;10.52;;;;;;;-3.52;100.00;102083.50;5009727;28;20508;-91
2021/12/21 03:25:59;;;;;;;25.48;13.48;;;;;;;-3.53;100.00;102079.16;4999846;28;20085;-89
2021/12/21 03:28:26;;;;;;;17.90;11.48;;;;;;;-3.51;100.00;102074.16;5020988;28;20116;-90
2021/12/21 03:30:53;;;;;;;17.98;10.77;;;;;;;-3.52;100.00;102074.91;5013075;28;20103;-87
2021/12/21 03:33:20;;;;;;;21.30;12.48;;;;;;;-3.52;100.00;102067.25;4998469;28;20052;-93
2021/12/21 03:35:47;;;;;;;21.10;12.50;;;;;;;-3.55;100.00;102062.78;5015779;28;20040;-90
2021/12/21 03:38:15;;;;;;;18.80;12.18;;;;;;;-3.55;100.00;102069.59;5010627;28;20053;-88
2021/12/21 03:40:43;;;;;;;20.90;13.52;;;;;;;-3.51;100.00;102064.81;5016039;28;20091;-90
2021/12/21 03:43:11;;;;;;;20.40;11.65;;;;;;;-3.33;100.00;102064.31;5034743;28;20044;-92
2021/12/21 03:45:50;;;;;;;18.63;12.43;;;;;;;-3.30;100.00;102054.28;5013498;28;20049;-92
2021/12/21 03:48:17;;;;;;;31.02;12.82;;;;;;;-3.37;100.00;102062.31;5014103;28;20499;-89
2021/12/21 03:50:44;;;;;;;17.52;12.13;;;;;;;-3.43;100.00;102067.88;5008765;28;20045;-89
2021/12/21 03:53:11;;;;;;;18.30;12.65;;;;;;;-3.46;100.00;102066.81;5018676;28;20045;-90
2021/12/21 03:55:40;;;;;;;15.07;11.27;;;;;;;-3.50;100.00;102058.00;5017603;28;20049;-90
2021/12/21 03:58:07;;;;;;;17.38;11.70;;;;;;;-3.52;100.00;102063.03;5026436;28;20044;-86
2021/12/21 04:00:34;;;;;;;22.05;12.57;;;;;;;-3.54;100.00;102064.56;4996020;28;20064;-87
2021/12/21 04:03:01;;;;;;;15.90;11.88;;;;;;;-3.57;100.00;102054.13;5005558;28;20045;-90
2021/12/21 04:05:28;;;;;;;19.35;11.48;;;;;;;-3.59;100.00;102058.22;5013636;28;20653;-89
2021/12/21 04:07:55;;;;;;;16.42;10.23;;;;;;;-3.63;100.00;102060.50;5009494;28;20612;-89
2021/12/21 04:10:21;;;;;;;23.90;13.70;;;;;;;-3.66;100.00;102058.59;5014603;28;20176;-90
2021/12/21 04:12:48;;;;;;;21.65;13.30;;;;;;;-3.67;100.00;102065.38;5013100;28;20049;-88
2021/12/21 04:15:17;;;;;;;18.63;11.50;;;;;;;-3.67;100.00;102062.81;4989614;28;20084;-87
2021/12/21 04:17:47;;;;;;;19.80;12.02;;;;;;;-3.69;100.00;102059.28;5031781;28;20107;-90
2021/12/21 04:20:16;;;;;;;19.98;12.60;;;;;;;-3.67;100.00;102064.50;5007545;28;20053;-89
2021/12/21 04:22:46;;;;;;;26.85;12.80;;;;;;;-3.69;100.00;102069.50;5010095;28;20296;-89
2021/12/21 04:25:13;;;;;;;18.15;12.13;;;;;;;-3.70;100.00;102069.41;5014171;28;20045;-88
2021/12/21 04:27:40;;;;;;;21.38;13.32;;;;;;;-3.70;100.00;102069.41;4990106;28;20053;-92
2021/12/21 04:30:09;;;;;;;35.10;13.60;;;;;;;-3.70;100.00;102071.97;4997067;28;20038;-87
2021/12/21 04:32:35;;;;;;;20.77;14.30;;;;;;;-3.72;100.00;102078.63;5005918;28;20060;-89
2021/12/21 04:35:03;;;;;;;25.30;13.48;;;;;;;-3.72;100.00;102074.38;4996717;28;20145;-91
2021/12/21 04:37:31;;;;;;;24.80;14.38;;;;;;;-3.71;100.00;102073.59;5014117;28;20053;-87
2021/12/21 04:40:03;;;;;;;24.55;12.85;;;;;;;-3.72;100.00;102070.94;5004457;28;20069;-90
2021/12/21 04:42:31;;;;;;;21.92;13.52;;;;;;;-3.71;100.00;102071.06;4995013;28;20057;-90
2021/12/21 04:44:58;;;;;;;39.92;14.13;;;;;;;-3.72;100.00;102074.38;5006807;28;20045;-91
2021/12/21 04:47:24;;;;;;;28.33;13.32;;;;;;;-3.74;100.00;102067.38;5010915;28;20085;-87
2021/12/21 04:49:54;;;;;;;27.42;15.48;;;;;;;-3.73;100.00;102064.03;5008165;28;20415;-89
2021/12/21 04:52:22;;;;;;;23.48;13.00;;;;;;;-3.76;100.00;102067.28;4983753;28;21821;-89
2021/12/21 04:54:48;;;;;;;29.55;15.02;;;;;;;-3.79;100.00;102068.72;5010765;28;20092;-90
2021/12/21 04:57:18;;;;;;;27.25;13.10;;;;;;;-3.80;100.00;102064.41;5001278;28;20118;-87
2021/12/21 04:59:45;;;;;;;30.17;13.93;;;;;;;-3.80;100.00;102062.72;5022868;28;20111;-90
2021/12/21 05:02:12;;;;;;;28.63;13.95;;;;;;;-3.79;100.00;102061.03;5004373;28;20054;-89
2021/12/21 05:04:41;;;;;;;37.78;15.05;;;;;;;-3.83;100.00;102060.81;4987741;28;20061;-88
2021/12/21 05:07:08;;;;;;;29.42;14.10;;;;;;;-3.83;100.00;102057.38;5029630;28;20056;-87
2021/12/21 05:09:41;;;;;;;16.92;11.57;;;;;;;-3.85;100.00;102061.50;5007231;28;20393;-89
2021/12/21 05:12:11;;;;;;;25.95;14.15;;;;;;;-3.90;100.00;102061.16;5012319;28;20053;-88
2021/12/21 05:17:20;;;;;;;23.52;13.27;;;;;;;-3.91;100.00;102066.16;4995230;28;20527;-91
2021/12/21 05:19:51;;;;;;;23.23;14.20;;;;;;;-3.92;100.00;102072.06;4991965;28;20496;-90
2021/12/21 05:22:18;;;;;;;34.15;13.85;;;;;;;-3.92;100.00;102072.94;4994054;28;20138;-89
2021/12/21 05:24:50;;;;;;;23.35;13.40;;;;;;;-3.87;100.00;102070.72;5017514;28;20049;-88
2021/12/21 05:27:18;;;;;;;24.85;14.13;;;;;;;-3.85;100.00;102064.06;4994501;28;20747;-90
2021/12/21 05:29:45;;;;;;;17.98;13.70;;;;;;;-3.83;100.00;102058.28;5018072;28;20042;-84
2021/12/21 05:32:12;;;;;;;19.63;14.07;;;;;;;-3.77;100.00;102067.16;5009243;28;20670;-85
2021/12/21 05:34:39;;;;;;;18.30;13.93;;;;;;;-3.77;100.00;102062.03;5012145;28;20128;-83
2021/12/21 05:37:07;;;;;;;23.48;12.82;;;;;;;-3.78;100.00;102058.59;5018036;28;20116;-91
2021/12/21 05:39:53;;;;;;;19.45;13.63;;;;;;;-3.78;100.00;102065.38;5016140;28;20065;-84
2021/12/21 05:42:19;;;;;;;29.83;14.05;;;;;;;-3.77;100.00;102068.03;5016386;28;20167;-82
2021/12/21 05:44:47;;;;;;;20.05;13.15;;;;;;;-3.77;100.00;102064.59;5017384;28;20829;-91
2021/12/21 05:47:14;;;;;;;22.02;13.63;;;;;;;-3.78;100.00;102070.50;5027063;28;20056;-92
2021/12/21 05:49:40;;;;;;;24.38;14.13;;;;;;;-3.77;100.00;102073.16;5014058;28;20041;-92
2021/12/21 05:52:08;;;;;;;19.20;13.05;;;;;;;-3.80;100.00;102078.06;5007441;28;20128;-82
2021/12/21 05:54:35;;;;;;;22.50;13.73;;;;;;;-3.83;100.00;102073.63;4999799;28;20049;-91
2021/12/21 05:57:02;;;;;;;27.60;14.32;;;;;;;-3.85;100.00;102080.28;5035495;28;20133;-85
2021/12/21 05:59:28;;;;;;;20.88;12.70;;;;;;;-3.86;100.00;102077.63;5009318;28;20045;-86
2021/12/21 06:01:55;;;;;;;27.35;13.70;;;;;;;-3.88;100.00;102072.41;5034891;28;20140;-84
2021/12/21 06:04:23;;;;;;;26.17;13.00;;;;;;;-3.91;100.00;102076.38;5016840;28;20288;-83
2021/12/21 06:06:50;;;;;;;19.48;12.68;;;;;;;-3.95;100.00;102075.31;5033872;28;20046;-85
2021/12/21 06:09:17;;;;;;;16.52;13.02;;;;;;;-3.97;100.00;102081.09;5004085;28;20407;-84
2021/12/21 06:11:49;;;;;;;19.55;12.35;;;;;;;-4.01;100.00;102073.16;5018710;28;20487;-84
2021/12/21 06:14:37;;;;;;;19.00;12.30;;;;;;;-3.99;100.00;102075.81;5023807;28;20379;-81
2021/12/21 06:22:46;;;;;;;19.58;12.93;;;;;;;-3.87;100.00;102063.03;5036319;28;20581;-88
2021/12/21 06:25:35;;;;;;;23.25;15.15;;;;;;;-3.88;100.00;102071.50;5001389;28;20127;-90
2021/12/21 06:28:10;;;;;;;36.05;16.40;;;;;;;-3.88;100.00;102071.50;5032774;28;20037;-84
2021/12/21 06:30:40;;;;;;;32.97;18.23;;;;;;;-3.83;100.00;102070.19;5017985;28;20442;-83
2021/12/21 06:33:09;;;;;;;28.60;15.85;;;;;;;-3.85;100.00;102080.28;5002710;28;20045;-90
2021/12/21 06:35:37;;;;;;;27.13;16.42;;;;;;;-3.87;100.00;102083.50;5007809;28;20045;-85
2021/12/21 06:38:07;;;;;;;30.23;17.88;;;;;;;-3.91;100.00;102072.19;4999220;28;20061;-88
2021/12/21 06:40:35;;;;;;;36.55;18.55;;;;;;;-3.94;100.00;102074.50;4999162;28;20551;-91
2021/12/21 06:43:03;;;;;;;26.23;14.68;;;;;;;-3.97;100.00;102074.28;4996820;28;20049;-90
2021/12/21 06:45:44;;;;;;;40.92;20.40;;;;;;;-3.97;100.00;102076.84;5000878;28;20164;-87
2021/12/21 06:51:15;;;;;;;46.88;23.65;;;;;;;-3.95;100.00;102076.94;5016473;28;20042;-90
2021/12/21 06:53:46;;;;;;;55.58;23.40;;;;;;;-3.94;100.00;102078.72;4997459;28;20064;-89
2021/12/21 06:56:14;;;;;;;44.63;20.25;;;;;;;-3.97;100.00;102076.84;5016549;28;20064;-88
2021/12/21 06:58:41;;;;;;;39.35;19.00;;;;;;;-3.97;100.00;102078.53;5014066;28;20038;-83
2021/12/21 07:01:08;;;;;;;35.25;17.70;;;;;;;-4.00;100.00;102076.63;5029377;28;20558;-88
2021/12/21 07:03:36;;;;;;;35.85;17.00;;;;;;;-4.00;100.00;102081.75;5000193;28;20467;-82
2021/12/21 07:06:06;;;;;;;31.47;16.43;;;;;;;-3.97;100.00;102083.63;5013985;28;20127;-85
2021/12/21 07:08:45;;;;;;;31.23;16.25;;;;;;;-3.93;100.00;102081.41;5033417;28;20100;-91
2021/12/21 07:11:23;;;;;;;29.13;15.48;;;;;;;-3.88;100.00;102074.94;5032600;28;20033;-87
2021/12/21 07:19:19;;;;;;;28.85;14.48;;;;;;;-3.77;100.00;102095.31;5015526;28;20040;-91
2021/12/21 07:21:46;;;;;;;21.27;12.55;;;;;;;-3.73;100.00;102094.75;5013336;28;20115;-85
2021/12/21 07:24:19;;;;;;;24.45;14.32;;;;;;;-3.66;100.00;102091.88;5035889;28;20053;-90
2021/12/21 07:26:46;;;;;;;19.60;11.55;;;;;;;-3.61;100.00;102090.53;5036490;28;20368;-82
2021/12/21 07:29:12;;;;;;;27.85;13.07;;;;;;;-3.57;100.00;102092.53;5051054;28;20042;-82
2021/12/21 07:31:42;;;;;;;20.95;11.52;;;;;;;-3.53;100.00;102096.19;5031226;28;20061;-83
2021/12/21 07:34:08;;;;;;;22.88;14.68;;;;;;;-3.48;100.00;102099.97;5032688;28;20099;-84
2021/12/21 07:36:42;;;;;;;26.05;14.02;;;;;;;-3.44;100.00;102101.06;5040440;28;20115;-82
2021/12/21 07:39:10;;;;;;;;;;;;;;;-3.41;100.00;102101.31;5017450;28;20049;-82
2021/12/21 07:41:37;;;;;;;44.00;19.35;;;;;;;-3.41;100.00;102097.06;5022309;28;19925;-86
2021/12/21 07:44:04;;;;;;;51.58;21.30;;;;;;;-3.41;100.00;102093.63;5033584;28;20103;-92
2021/12/21 07:46:32;;;;;;;66.70;25.38;;;;;;;-3.39;100.00;102103.19;5003672;28;20752;-83
2021/12/21 07:49:07;;;;;;;56.88;22.33;;;;;;;-3.40;100.00;102088.59;5016310;28;20134;-92
2021/12/21 07:51:34;;;;;;;49.67;22.20;;;;;;;-3.40;100.00;102098.84;5031011;28;20045;-91
2021/12/21 07:54:00;;;;;;;73.55;27.30;;;;;;;-3.41;100.00;102097.06;5020853;28;20057;-82
2021/12/21 07:56:27;;;;;;;91.97;35.35;;;;;;;-3.40;100.00;102096.28;5000413;28;20041;-90
2021/12/21 07:58:54;;;;;;;93.70;33.83;;;;;;;-3.43;100.00;102102.84;5017623;28;20064;-87
2021/12/21 08:01:21;;;;;;;74.72;31.08;;;;;;;-3.47;100.00;102098.31;4995265;28;20512;-85
2021/12/21 08:03:49;;;;;;;87.30;32.47;;;;;;;-3.47;100.00;102104.28;5013680;28;20058;-85
2021/12/21 08:06:16;;;;;;;62.08;25.90;;;;;;;-3.49;100.00;102101.63;5014543;28;20033;-81
2021/12/21 08:08:45;;;;;;;77.13;28.60;;;;;;;-3.47;100.00;102103.41;5010151;28;20048;-86
2021/12/21 08:11:16;;;;;;;66.68;25.75;;;;;;;-3.43;100.00;102103.72;5030756;28;20049;-84
2021/12/21 08:13:47;;;;;;;70.43;29.40;;;;;;;-3.37;100.00;102111.84;5015497;28;20131;-86
2021/12/21 08:16:15;;;;;;;63.33;25.70;;;;;;;-3.29;100.00;102107.28;5025790;28;20116;-82
2021/12/21 08:18:41;;;;;;;77.75;29.38;;;;;;;-3.26;100.00;102112.63;4999102;28;20045;-90
2021/12/21 08:21:08;;;;;;;68.75;22.50;;;;;;;-3.29;100.00;102112.41;5009874;28;20037;-81
2021/12/21 08:23:35;;;;;;;54.25;22.38;;;;;;;-3.31;100.00;102111.41;5013970;28;20081;-86
2021/12/21 08:26:01;;;;;;;55.08;17.80;;;;;;;-3.32;100.00;102114.75;4994647;28;20055;-83
2021/12/21 08:28:28;;;;;;;28.48;15.48;;;;;;;-3.30;100.00;102114.84;5017231;28;20071;-83
2021/12/21 08:30:55;;;;;;;72.20;16.45;;;;;;;-3.38;100.00;102111.75;4995252;28;20495;-88
2021/12/21 08:33:22;;;;;;;28.15;15.77;;;;;;;-3.39;100.00;102116.00;5031929;28;20034;-86
2021/12/21 08:35:48;;;;;;;34.22;16.13;;;;;;;-3.32;100.00;102117.31;5020728;28;20041;-88
2021/12/21 08:38:19;;;;;;;30.20;15.07;;;;;;;-3.26;100.00;102114.28;5014025;28;20057;-90
2021/12/21 08:40:53;;;;;;;25.38;14.38;;;;;;;-3.25;100.00;102113.50;5000607;28;20060;-86
2021/12/21 08:43:25;;;;;;;31.10;15.00;;;;;;;-3.23;100.00;102117.97;5012244;28;20049;-91
2021/12/21 08:45:52;;;;;;;40.30;14.90;;;;;;;-3.30;100.00;102115.75;5009121;28;20042;-85
2021/12/21 08:48:20;;;;;;;29.52;12.57;;;;;;;-3.32;100.00;102119.88;5012081;28;20095;-86
2021/12/21 08:50:49;;;;;;;24.35;12.45;;;;;;;-3.32;100.00;102117.31;5006991;28;20087;-84
2021/12/21 08:53:17;;;;;;;19.75;12.15;;;;;;;-3.25;100.00;102118.63;4992466;28;20717;-87
2021/12/21 08:55:45;;;;;;;25.67;14.00;;;;;;;-3.17;100.00;102117.50;4992292;28;20060;-86
2021/12/21 08:58:13;;;;;;;37.97;14.93;;;;;;;-3.17;100.00;102118.41;5019129;28;20032;-85
2021/12/21 09:00:41;;;;;;;25.40;13.48;;;;;;;-3.16;100.00;102117.59;5013947;28;20050;-83
2021/12/21 09:03:09;;;;;;;27.15;14.63;;;;;;;-3.17;100.00;102117.50;5007066;28;20164;-87
2021/12/21 09:05:37;;;;;;;23.52;15.00;;;;;;;-3.17;100.00;102120.97;4993809;28;20226;-90
2021/12/21 09:08:06;;;;;;;30.88;15.25;;;;;;;-3.12;100.00;102110.16;5012193;28;20536;-90
2021/12/21 09:10:33;;;;;;;24.33;13.13;;;;;;;-3.13;100.00;102116.03;5009157;28;20052;-86
2021/12/21 09:13:02;;;;;;;26.25;13.48;;;;;;;-3.12;100.00;102115.28;5008302;28;20045;-82
2021/12/21 09:15:30;;;;;;;26.38;14.43;;;;;;;-3.04;100.00;102114.13;4984906;28;20077;-89
2021/12/21 09:17:59;;;;;;;23.55;13.27;;;;;;;-2.98;100.00;102117.13;5008872;28;20076;-86
2021/12/21 09:20:31;;;;;;;24.42;14.27;;;;;;;-2.94;100.00;102115.69;5009168;28;20033;-82
2021/12/21 09:22:59;;;;;;;25.95;15.55;;;;;;;-2.91;100.00;102114.19;4999866;28;20056;-86
2021/12/21 09:25:27;;;;;;;30.58;13.50;;;;;;;-2.85;100.00;102124.00;4986413;28;20049;-82
2021/12/21 09:27:59;;;;;;;23.95;13.77;;;;;;;-2.80;100.00;102121.72;4997391;28;20053;-84
2021/12/21 09:30:29;;;;;;;22.50;13.63;;;;;;;-2.70;100.00;102126.72;5030704;28;21057;-82
2021/12/21 09:32:56;;;;;;;28.75;14.93;;;;;;;-2.59;100.00;102124.91;5010135;28;20053;-86
2021/12/21 09:35:24;;;;;;;31.52;16.40;;;;;;;-2.51;100.00;102127.19;4989503;28;20041;-82
2021/12/21 09:37:52;;;;;;;49.05;16.98;;;;;;;-2.49;100.00;102134.97;5010268;28;20034;-85
2021/12/21 09:40:28;;;;;;;50.58;16.45;;;;;;;-2.55;100.00;102139.72;4992792;28;20133;-83
2021/12/21 09:42:57;;;;;;;31.13;14.70;;;;;;;-2.61;100.00;102132.47;5024437;28;20045;-87
2021/12/21 09:45:24;;;;;;;40.10;14.48;;;;;;;-2.55;100.00;102132.03;4993186;28;20736;-83
2021/12/21 09:47:52;;;;;;;26.70;14.32;;;;;;;-2.53;100.00;102139.03;5021224;28;20885;-87
2021/12/21 09:50:22;;;;;;;27.95;13.57;;;;;;;-2.53;100.00;102131.34;4992166;28;20042;-88
2021/12/21 09:52:48;;;;;;;29.42;13.73;;;;;;;-2.49;100.00;102132.41;5024940;28;20057;-87
2021/12/21 09:55:18;;;;;;;23.63;13.13;;;;;;;-2.46;100.00;102127.50;5033271;28;20507;-83
2021/12/21 09:57:45;;;;;;;32.70;12.95;;;;;;;-2.36;100.00;102127.34;5018745;28;20059;-84
2021/12/21 10:00:22;;;;;;;28.65;13.93;;;;;;;-2.30;100.00;102137.13;5012308;28;20041;-87
2021/12/21 10:02:49;;;;;;;22.35;14.43;;;;;;;-2.27;100.00;102132.19;5001926;28;20469;-82
2021/12/21 10:05:21;;;;;;;22.30;12.70;;;;;;;-2.19;100.00;102141.31;5017518;28;20100;-83
2021/12/21 10:08:01;;;;;;;26.53;13.70;;;;;;;-2.09;100.00;102129.97;5033756;28;20064;-81
2021/12/21 10:10:50;;;;;;;22.98;14.23;;;;;;;-2.05;100.00;102131.94;4998406;28;20053;-81
2021/12/21 10:13:22;;;;;;;20.92;13.40;;;;;;;-2.05;100.00;102131.06;5017115;28;20073;-88
2021/12/21 10:15:53;;;;;;;21.30;14.07;;;;;;;-2.03;100.00;102126.94;5015472;28;20053;-85
2021/12/21 10:18:38;;;;;;;23.40;12.85;;;;;;;-1.96;100.00;102115.41;5005636;28;20054;-86
2021/12/21 10:21:06;;;;;;;;;;;;;;;-1.94;100.00;102117.28;4991900;28;20038;-88
2021/12/21 10:23:38;;;;;;;22.48;12.90;;;;;;;-1.84;100.00;102114.53;5003709;28;20005;-89
2021/12/21 10:26:08;;;;;;;28.17;12.80;;;;;;;-1.73;100.00;102114.31;5008855;28;20045;-87
2021/12/21 10:28:47;;;;;;;21.27;12.75;;;;;;;-1.68;100.00;102121.53;5010542;28;20037;-84
2021/12/21 10:31:32;;;;;;;21.40;13.55;;;;;;;-1.62;100.00;102123.59;5008594;28;20499;-86
2021/12/21 10:34:01;;;;;;;;;;;;;;;-1.54;100.00;102117.28;5029884;28;20083;-84
2021/12/21 10:36:29;;;;;;;19.33;13.10;;;;;;;-1.39;100.00;102116.50;5017125;28;20234;-85
2021/12/21 10:39:03;;;;;;;23.98;13.32;;;;;;;-1.31;100.00;102117.84;5006928;28;20060;-86
2021/12/21 10:41:41;;;;;;;23.05;13.73;;;;;;;-1.24;100.00;102119.13;5000202;28;20059;-82
2021/12/21 10:44:15;;;;;;;23.83;14.25;;;;;;;-1.17;100.00;102111.88;5000298;28;20132;-83
2021/12/21 10:46:46;;;;;;;23.35;13.88;;;;;;;-1.11;100.00;102118.22;4982376;28;20055;-87
2021/12/21 10:49:31;;;;;;;21.70;14.25;;;;;;;-1.12;100.00;102112.19;4979540;28;20041;-85
2021/12/21 10:52:14;;;;;;;20.52;14.45;;;;;;;-1.09;100.00;102111.50;4986205;28;20048;-83
2021/12/21 10:54:47;;;;;;;23.85;14.63;;;;;;;-1.06;100.00;102114.25;4997724;28;20719;-86
2021/12/21 10:57:32;;;;;;;30.95;15.38;;;;;;;-1.12;100.00;102106.13;4990340;28;20111;-85
2021/12/21 11:00:14;;;;;;;34.75;15.77;;;;;;;-1.16;100.00;102110.22;5002382;28;20143;-84
2021/12/21 11:02:42;;;;;;;33.30;16.48;;;;;;;-1.23;100.00;102106.34;5004522;28;20078;-83
2021/12/21 11:05:16;;;;;;;21.05;13.70;;;;;;;-1.22;100.00;102104.69;4993274;28;20436;-86
2021/12/21 11:07:52;;;;;;;25.25;13.80;;;;;;;-1.12;100.00;102094.19;5000081;28;20068;-84
2021/12/21 11:10:34;;;;;;;24.25;14.70;;;;;;;-1.03;100.00;102096.44;5006137;28;20053;-84
2021/12/21 11:13:13;;;;;;;40.90;22.05;;;;;;;-0.98;100.00;102092.47;5004626;28;20045;-84
2021/12/21 11:15:51;;;;;;;28.50;15.00;;;;;;;-0.89;100.00;102087.88;4989899;28;20053;-87
2021/12/21 11:18:18;;;;;;;29.52;17.17;;;;;;;-0.87;100.00;102090.56;5002837;28;20169;-85
2021/12/21 11:20:49;;;;;;;27.63;16.60;;;;;;;-0.86;100.00;102093.22;4984347;28;20420;-83
2021/12/21 11:23:19;;;;;;;29.92;17.73;;;;;;;-0.81;100.00;102084.91;4989084;28;21461;-86
2021/12/21 11:25:49;;;;;;;32.80;16.67;;;;;;;-0.84;100.00;102073.63;5011046;28;20060;-86
2021/12/21 11:28:21;;;;;;;36.58;18.27;;;;;;;-0.91;100.00;102080.88;5008633;28;20729;-83
2021/12/21 11:30:48;;;;;;;32.72;17.67;;;;;;;-1.04;100.00;102076.69;5001325;28;20632;-86
2021/12/21 11:33:18;;;;;;;34.05;16.92;;;;;;;-1.12;100.00;102083.94;5002036;28;20520;-84
2021/12/21 11:38:31;;;;;;;37.90;21.27;;;;;;;-0.98;100.00;102083.88;5004350;28;20053;-83
2021/12/21 11:41:00;;;;;;;34.50;18.23;;;;;;;-0.87;100.00;102082.84;5010009;28;20053;-85
2021/12/21 11:43:38;;;;;;;37.85;19.88;;;;;;;-0.84;100.00;102088.16;5019619;28;20572;-85
2021/12/21 11:46:15;;;;;;;39.55;19.35;;;;;;;-0.79;100.00;102075.59;4991867;28;20061;-85
2021/12/21 11:49:00;;;;;;;31.27;18.50;;;;;;;-0.77;100.00;102080.06;4993665;28;20069;-86
2021/12/21 11:51:28;;;;;;;35.22;19.55;;;;;;;-0.71;100.00;102066.66;5005824;28;20033;-84